Aeroporto :
LOGIN :

Iscrizione | Disclaimer

   EN    FR    IT 

 










Sommario :    VFR   VFR Marginale   IFR   IFR Intensivo   IFR Molto Intensivo
Visibilità : 
Base nubi : 
>= 8 km
>= 3000ft
5 / 8 km
1000 / 3000 ft
1500m / 5 km
500 / 1000 ft
800 / 1500m
200 / 500 ft
< 800m
< 200 ft
Simboli :   Temporali  Nebbia  Neve Forte  Precipitazioni Forti  Vento > 20 kt
SIGMETs :   Varie  Temporali  Ghiacco  Turbolenza  Onda orograficha  Ceneri Vulcaniche







- Altitudine del aeroporto : 48 ft
- Codice IATA : PSR


LIBP - Abruzzo Pescara

ULTIMO METAR :
  • 201650Z 06005KT 030V090 9999 FEW090 29/20 Q1018

METARs OBSOLETI :
  • 201550Z 09008KT CAVOK 30/18 Q1017
  • 201450Z 07007KT 040V110 CAVOK 30/20 Q1017

TAF TAF LIBP
Valido dal 20 a 12 ore il 21 a 12 ore UTC


201100Z 2012/2112 06010KT 9999 FEW030
BECMG 2016/2018 VRB05KT
BECMG 2109/2111 06010KT
Nessun NOTAM noto per questo aeroporto.



MetMap, La meteo Aeronautica in un colpo d'occhio ! - Copyright ORBIFLY Dicembre 2007 - Disclaimer

ORBIFLY MET'MAP TEAM :

Programmazione e sviluppo : Alexandra Zaïnal
Concezione e sviluppo : Baudouin d'Aumeries
Co-Programmazione e sviluppo : Marc-Olivier Méhu
Supporto tecnico e logistico : Manuel Goepfert
Aiuto per la traduzione : Arnaldo La Scala

Contatto : metmap@orbifly.com




FONTI E CREDITI :

   NOAA